METAR Data
IDs: Format: Raw Decoded Include TAF

Data at: 1519 UTC 21 Sep 2018

KDVP 211514Z AUTO 31015G25KT 10SM BKN014 OVC021 08/04 A3019 RMK AO2 T00790041
KDVP 211413Z AUTO 31020G24KT 10SM BKN017 OVC021 08/04 A3015 RMK AO2 T00810039
KDVP 211359Z AUTO 31014G22KT 10SM BKN014 OVC023 08/04 A3013 RMK AO2
KDVP 211259Z AUTO 32018G27KT 10SM SCT015 BKN020 OVC036 08/05 A3007 RMK AO2
KDVP 211159Z AUTO 29019G24KT 7SM +RA SCT018 OVC028 09/06 A3002 RMK AO2
KDVP 211154Z AUTO 28016G22KT 10SM +RA SCT018 OVC028 10/06 A3002 RMK AO2 70179 T00960060 10125 20095
KDVP 211059Z AUTO 31018G22KT 10SM +RA SCT022 OVC029 11/07 A2996 RMK AO2
KDVP 210959Z AUTO 29017G22KT 5SM +RA BKN015 BKN021 OVC029 11/08 A2992 RMK AO2
KDVP 210915Z AUTO 28016G21KT 10SM OVC012 11/08 A2989 RMK AO2 T01110075
KDVP 210859Z AUTO 28016G22KT 10SM OVC012 11/08 A2988 RMK AO2
KDVP 210835Z AUTO 28014G21KT 10SM OVC014 11/08 A2987 RMK AO2 T01110076
KDVP 210759Z AUTO 28013G22KT 10SM OVC010 11/08 A2986 RMK AO2
KDVP 210734Z AUTO 28016G21KT 10SM OVC010 12/08 A2984 RMK AO2 T01150082
KDVP 210714Z AUTO 27016G24KT 10SM OVC012 12/09 A2983 RMK AO2 T01200085
KDVP 210614Z AUTO 28016G25KT 10SM OVC012 12/09 A2981 RMK AO2 T01230087
KDVP 210559Z AUTO 28016G24KT 10SM BKN012 12/09 A2981 RMK AO2
KDVP 210554Z AUTO 27014G25KT 10SM BKN012 13/09 A2981 RMK AO2 T01260091 10187 20125 401910125
KDVP 210459Z AUTO 27017G23KT 10SM OVC012 13/10 A2978 RMK AO2
KDVP 210359Z AUTO 27014G19KT 10SM BKN010 OVC015 14/12 A2977 RMK AO2
KDVP 210259Z AUTO 27016G23KT 10SM SCT019 16/13 A2972 RMK AO2
KDVP 210254Z AUTO 27017G23KT 10SM SCT014 SCT019 17/13 A2972 RMK AO2 T01660128
KDVP 210234Z AUTO 27013G16KT 10SM SCT015 BKN019 17/14 A2970 RMK AO2 T01710140
KDVP 210159Z AUTO 26011G17KT 10SM SCT017 SCT023 17/14 A2968 RMK AO2
KDVP 210114Z AUTO 26008G14KT 10SM SCT015 18/15 A2965 RMK AO2 T01800148
KDVP 210059Z AUTO 25011G22KT 10SM SCT015 18/15 A2964 RMK AO2
KDVP 202359Z AUTO 26010G18KT 10SM SCT010 OVC015 19/16 A2961 RMK AO2
KDVP 202314Z AUTO 25009KT 10SM OVC013 19/16 A2960 RMK AO2 T01900163
KDVP 202259Z AUTO 00000KT 10SM -RA SCT017 BKN025 BKN034 18/16 A2958 RMK AO2 LTG DSNT E P0005
KDVP 202255Z AUTO 00000KT 10SM -RA SCT017 SCT025 BKN034 18/16 A2958 RMK AO2 LTG DSNT E P0005 T01810160
KDVP 202234Z AUTO 00000KT 5SM -RA SCT030 BKN036 BKN047 18/16 A2958 RMK AO2 P0005 T01750155
KDVP 202215Z AUTO 00000KT 7SM RA SCT022 BKN034 OVC085 18/15 A2963 RMK AO2 LTG DSNT NE THRU S P0003 T01750152
KDVP 202154Z AUTO 01005KT 4SM /VCTSRA SCT002 BKN012 OVC046 18/15 A2961 RMK AO2 LTG DSNT ALQS P0035 T01750152
KDVP 202059Z AUTO 00000KT 3/4SM TS BR OVC002 18/16 A2958 RMK AO2 LTG DSNT NW THRU NE
KDVP 202014Z AUTO 12008KT 2SM BR OVC002 18/16 A2962 RMK AO2 LTG DSNT N AND NW T01770157
KDVP 201959Z AUTO 12009KT 3SM BR OVC002 17/15 A2964 RMK AO2 LTG DSNT W AND NW
KDVP 201954Z AUTO 12009KT 2 1/2SM BR OVC002 18/16 A2965 RMK AO2 LTG DSNT W THRU NE T01750155
KDVP 201915Z AUTO 09009KT 2SM BR OVC004 17/15 A2969 RMK AO2 LTG DSNT W AND NW T01700150
KDVP 201859Z AUTO 09007KT 2SM -RA OVC004 17/15 A2970 RMK AO2 LTG DSNT NW P0003
KDVP 201834Z AUTO 08007KT 2SM DZ BKN004 BKN009 OVC015 17/15 A2972 RMK AO2 LTG DSNT N AND NE P0002 T01670146
KDVP 201759Z AUTO 08012KT 2SM -RA BKN011 BKN017 OVC024 17/14 A2975 RMK AO2 LTG DSNT N AND NE P0005
KDVP 201659Z AUTO 10010G16KT 10SM -VCTSRA SCT007 SCT016 BKN085 17/14 A2977 RMK AO2 LTG DSNT SE S AND NW P0040
KDVP 201559Z AUTO 09015G22KT 1SM +TSRA BKN010 OVC019 17/14 A2980 RMK AO2 LTG DSNT ALQS P0034
KDVP 201459Z AUTO 12012G19KT 10SM -VCTSRA SCT010 SCT055 BKN070 17/14 A2984 RMK AO2 P0004
KDVP 201359Z AUTO 11015G20KT 4SM +RA SCT007 BKN030 OVC035 15/13 A2987 RMK AO2 LTG DSNT S P0030
KDVP 201314Z AUTO 07005KT 4SM +RA SCT010 BKN021 OVC040 15/13 A2992 RMK AO2 LTG DSNT SE AND S P0008 T01500130
KDVP 201259Z AUTO 07004KT 5SM +RA SCT008 BKN020 OVC050 15/13 A2993 RMK AO2 LTG DSNT S P0024
KDVP 201254Z AUTO 08004KT 7SM RA SCT008 BKN025 OVC050 15/13 A2993 RMK AO2 LTG DSNT S P0021 T01500130
KDVP 201215Z AUTO 00000KT 3SM +RA OVC004 15/12 A2994 RMK AO2 LTG DSNT SW P0006 T01470124
KDVP 201159Z AUTO 08006KT 10SM RA OVC002 14/12 A2989 RMK AO2 LTG DSNT SW P0012
KDVP 201059Z AUTO 09004KT 7SM RA OVC005 13/11 A2993 RMK AO2 LTG DSNT SE P0016
KDVP 200959Z AUTO 08007G14KT 7SM RA OVC003 13/11 A2993 RMK AO2 P0013
KDVP 200954Z AUTO 08006G14KT 7SM -RA OVC003 13/11 A2993 RMK AO2 P0012 T01330111
KDVP 200859Z AUTO 07007KT 7SM RA BKN003 BKN009 OVC030 13/11 A2993 RMK AO2 LTG DSNT SE P0020
KDVP 200759Z AUTO 04007KT 5SM RA SCT003 BKN018 OVC035 13/11 A2997 RMK AO2 P0024
KDVP 200734Z AUTO 02006KT 7SM RA SCT003 BKN026 OVC037 14/11 A2998 RMK AO2 P0014 T01350112
KDVP 200715Z AUTO 05007KT 5SM +RA SCT005 BKN020 OVC039 14/11 A2997 RMK AO2 P0007 T01350112
KDVP 200659Z AUTO 03007KT 7SM +RA BKN003 BKN010 OVC018 13/11 A2998 RMK AO2 P0024
KDVP 200655Z AUTO 03006KT 7SM +RA BKN003 BKN010 OVC018 14/12 A2998 RMK AO2 P0023 T01350115
KDVP 200614Z AUTO 04006KT 5SM VCTSRA BKN005 BKN008 OVC031 14/12 A2997 RMK AO2 P0006 T01370116
KDVP 200559Z AUTO 04007KT 7SM +RA OVC005 14/12 A2998 RMK AO2 LTG DSNT S P0015
KDVP 200515Z AUTO 05008KT 7SM RA BKN003 OVC008 14/12 A2996 RMK AO2 LTG DSNT S P0003 T01410120
KDVP 200459Z AUTO 04009KT 7SM RA BKN003 OVC008 14/12 A2997 RMK AO2 LTG DSNT S P0014
KDVP 200454Z AUTO 04008KT 7SM RA OVC003 14/12 A2996 RMK AO2 LTG DSNT S P0013 T01410121
KDVP 200359Z AUTO 01008KT 7SM RA OVC003 15/13 A2999 RMK AO2 LTG DSNT SW P0008